Southborough, Massachusetts
Current Conditions -  °F | °C
As of 9:56 PM on Thursday 18 Dec 2014 (Local Time) from KBED Reporting Station
Overcast Overcast  
Wind Chill: 30°   Ceiling: 3100
Heat Index: 37°   Visibility: 10mi
Dew Point: 27°   Wind: 9mph
Humidity: 67%   Direction: 300°WNW
Pressure: 29.84"   Gusts: NA
Location:  42.31°N, 71.52°W
Report Text: KBED 190256Z 30008KT 10SM OVC031 03/M03 A2984 RMK AO2 SLP121 T00281028 51002
Loading
Personal Weather Stations






























Interactive Weather Map New forecast layout! Learn more

10-Day Weather Forecast

Advertisements
Track Severe Weather on mobile